Time;durP1;ratioP1;P1;durP2;ratioP2;P2;SDS_P1;SDS_P2;PMS_P1;PMS_P2;Temp;Humidity;BMP_temperature;BMP_pressure;BME280_temperature;BME280_humidity;BME280_pressure;Samples;Min_cycle;Max_cycle;Signal;HPM_P1;HPM_P2
2023/02/01 00:00:11;;;;;;;5.68;1.58;;;;;;;;;;5067471;28;20062;-70
2023/02/01 00:02:40;;;;;;;9.20;1.63;;;;;;;;;;5080633;28;20138;-71
2023/02/01 00:05:07;;;;;;;5.95;1.60;;;;;;;;;;5058764;28;20071;-71
2023/02/01 00:07:34;;;;;;;9.45;1.80;;;;;;;;;;5057403;28;20063;-70
2023/02/01 00:10:01;;;;;;;13.15;2.00;;;;;;;;;;5058102;28;20052;-71
2023/02/01 00:12:27;;;;;;;11.52;1.92;;;;;;;;;;5064321;28;20052;-70
2023/02/01 00:14:54;;;;;;;9.05;1.80;;;;;;;;;;5058236;28;20070;-71
2023/02/01 00:17:20;;;;;;;11.05;2.35;;;;;;;;;;5045466;28;20080;-71
2023/02/01 00:19:48;;;;;;;9.98;2.13;;;;;;;;;;5041612;28;20075;-71
2023/02/01 00:22:15;;;;;;;10.65;1.67;;;;;;;;;;5037253;28;20043;-70
2023/02/01 00:24:41;;;;;;;13.20;2.15;;;;;;;;;;5061049;28;20073;-70
2023/02/01 00:27:08;;;;;;;8.20;1.50;;;;;;;;;;5032889;28;20048;-70
2023/02/01 00:29:35;;;;;;;8.73;1.70;;;;;;;;;;5029262;28;20048;-70
2023/02/01 00:32:01;;;;;;;11.73;1.80;;;;;;;;;;5039711;28;20062;-71
2023/02/01 00:34:28;;;;;;;11.27;2.05;;;;;;;;;;5043384;28;20259;-71
2023/02/01 00:36:56;;;;;;;9.93;1.98;;;;;;;;;;5027460;28;20041;-70
2023/02/01 00:39:22;;;;;;;7.03;1.52;;;;;;;;;;5000803;28;20090;-70
2023/02/01 00:41:49;;;;;;;15.40;1.60;;;;;;;;;;5029049;28;20047;-70
2023/02/01 00:44:16;;;;;;;10.00;1.63;;;;;;;;;;5040010;28;20048;-71
2023/02/01 00:46:44;;;;;;;9.10;1.35;;;;;;;;;;5038220;28;20324;-71
2023/02/01 00:49:11;;;;;;;13.60;1.90;;;;;;;;;;5051171;28;20063;-70
2023/02/01 00:51:42;;;;;;;9.00;1.70;;;;;;;;;;5069493;28;20067;-71
2023/02/01 00:54:11;;;;;;;8.98;1.65;;;;;;;;;;5042938;28;20056;-71
2023/02/01 00:56:37;;;;;;;13.38;2.17;;;;;;;;;;5023738;28;20047;-70
2023/02/01 00:59:04;;;;;;;9.05;1.35;;;;;;;;;;5055814;28;20064;-71
2023/02/01 01:01:30;;;;;;;7.55;1.67;;;;;;;;;;5057359;28;20052;-70
2023/02/01 01:03:58;;;;;;;8.05;1.50;;;;;;;;;;5048448;28;20059;-71
2023/02/01 01:06:26;;;;;;;9.27;1.63;;;;;;;;;;5043099;28;20051;-70
2023/02/01 01:08:54;;;;;;;9.95;1.63;;;;;;;;;;5058875;28;20043;-70
2023/02/01 01:11:23;;;;;;;7.80;1.25;;;;;;;;;;5057006;28;20056;-70
2023/02/01 01:13:50;;;;;;;17.85;1.75;;;;;;;;;;5058442;28;20055;-70
2023/02/01 01:16:17;;;;;;;9.40;1.33;;;;;;;;;;5066786;28;20047;-71
2023/02/01 01:18:44;;;;;;;9.75;1.50;;;;;;;;;;5040179;28;20062;-70
2023/02/01 01:21:13;;;;;;;9.55;1.67;;;;;;;;;;5044306;28;20218;-70
2023/02/01 01:23:40;;;;;;;7.82;1.60;;;;;;;;;;5014556;28;20135;-70
2023/02/01 01:26:06;;;;;;;14.90;1.77;;;;;;;;;;5053608;28;20059;-70
2023/02/01 01:28:35;;;;;;;10.10;1.50;;;;;;;;;;5021113;28;20158;-71
2023/02/01 01:31:01;;;;;;;10.95;1.58;;;;;;;;;;5068376;28;20072;-70
2023/02/01 01:33:28;;;;;;;5.97;1.58;;;;;;;;;;5030322;28;20116;-71
2023/02/01 01:35:54;;;;;;;10.48;1.65;;;;;;;;;;5044325;28;20126;-70
2023/02/01 01:38:22;;;;;;;8.35;1.30;;;;;;;;;;5062024;28;20181;-71
2023/02/01 01:40:49;;;;;;;7.68;1.58;;;;;;;;;;5024577;28;20048;-71
2023/02/01 01:43:16;;;;;;;5.15;1.17;;;;;;;;;;5057269;28;20056;-72
2023/02/01 01:45:44;;;;;;;10.02;1.33;;;;;;;;;;5028052;28;20101;-70
2023/02/01 01:48:14;;;;;;;10.88;1.55;;;;;;;;;;5021145;28;20143;-71
2023/02/01 01:50:43;;;;;;;9.20;1.40;;;;;;;;;;5033749;28;20056;-71
2023/02/01 01:53:12;;;;;;;6.28;1.55;;;;;;;;;;5035292;28;20049;-70
2023/02/01 01:55:41;;;;;;;8.73;1.90;;;;;;;;;;5058164;28;20070;-70
2023/02/01 01:58:09;;;;;;;8.45;1.25;;;;;;;;;;5022049;28;20055;-70
2023/02/01 02:00:36;;;;;;;7.15;1.17;;;;;;;;;;5048729;28;20134;-71
2023/02/01 02:03:09;;;;;;;7.55;1.33;;;;;;;;;;5046355;28;20129;-71
2023/02/01 02:05:36;;;;;;;8.02;1.60;;;;;;;;;;5029772;28;20130;-70
2023/02/01 02:08:02;;;;;;;8.93;1.48;;;;;;;;;;5004025;28;20059;-70
2023/02/01 02:13:09;;;;;;;5.95;1.40;;;;;;;;;;5031491;28;20056;-69
2023/02/01 02:15:39;;;;;;;9.20;1.38;;;;;;;;;;5061332;28;20138;-69
2023/02/01 02:18:10;;;;;;;13.05;1.60;;;;;;;;;;5059213;28;20133;-70
2023/02/01 02:20:54;;;;;;;8.43;1.50;;;;;;;;;;5068645;28;20102;-70
2023/02/01 02:23:42;;;;;;;6.97;1.27;;;;;;;;;;5045689;28;20047;-69
2023/02/01 02:26:26;;;;;;;10.10;1.80;;;;;;;;;;5020434;28;20215;-70
2023/02/01 02:29:08;;;;;;;9.98;1.60;;;;;;;;;;5040617;28;20186;-70
2023/02/01 02:31:54;;;;;;;10.32;1.73;;;;;;;;;;5003374;28;20060;-70
2023/02/01 02:34:26;;;;;;;8.10;1.52;;;;;;;;;;5060608;28;20059;-70
2023/02/01 02:36:57;;;;;;;11.65;1.38;;;;;;;;;;5033481;28;20056;-70
2023/02/01 02:39:28;;;;;;;5.13;1.00;;;;;;;;;;5048800;28;20051;-69
2023/02/01 02:47:34;;;;;;;12.73;1.58;;;;;;;;;;5053372;28;20058;-70
2023/02/01 02:55:42;;;;;;;8.93;1.40;;;;;;;;;;5061147;28;20051;-69
2023/02/01 03:06:27;;;;;;;10.50;1.50;;;;;;;;;;5044092;28;20192;-69
2023/02/01 03:08:56;;;;;;;6.95;1.67;;;;;;;;;;5038990;28;20147;-69
2023/02/01 03:12:55;;;;;;;5.47;1.20;;;;;;;;;;5042099;28;20057;-70
2023/02/01 03:14:11;;;;;;;7.28;1.25;;;;;;;;;;5031464;28;20164;-69
2023/02/01 03:16:42;;;;;;;8.18;1.10;;;;;;;;;;5065373;28;20051;-69
2023/02/01 03:19:10;;;;;;;8.35;1.25;;;;;;;;;;5043027;28;20073;-69
2023/02/01 03:21:40;;;;;;;13.57;1.20;;;;;;;;;;5033949;28;21568;-70
2023/02/01 03:24:11;;;;;;;7.93;1.33;;;;;;;;;;5031356;28;20052;-69
2023/02/01 03:26:39;;;;;;;11.30;2.03;;;;;;;;;;5052930;28;20044;-69
2023/02/01 03:29:09;;;;;;;9.02;1.40;;;;;;;;;;5033241;28;20147;-69
2023/02/01 03:31:36;;;;;;;8.93;1.23;;;;;;;;;;5012031;28;20060;-69
2023/02/01 03:34:03;;;;;;;7.65;1.05;;;;;;;;;;5020662;28;20131;-70
2023/02/01 03:36:31;;;;;;;10.18;1.75;;;;;;;;;;5019817;28;20056;-71
2023/02/01 03:39:03;;;;;;;6.22;1.38;;;;;;;;;;5051482;28;20060;-70
2023/02/01 03:41:34;;;;;;;11.82;1.30;;;;;;;;;;5022177;28;20155;-70
2023/02/01 03:44:05;;;;;;;7.78;1.10;;;;;;;;;;4997626;28;20044;-70
2023/02/01 03:46:34;;;;;;;6.50;1.30;;;;;;;;;;5013113;28;20073;-69
2023/02/01 03:49:00;;;;;;;;;;;;;;;;;;5022612;28;20072;-70
2023/02/01 03:51:27;;;;;;;10.23;1.58;;;;;;;;;;5059860;28;19994;-69
2023/02/01 03:53:55;;;;;;;8.77;1.17;;;;;;;;;;5020032;28;20060;-70
2023/02/01 03:56:25;;;;;;;10.18;2.25;;;;;;;;;;5037810;28;20060;-69
2023/02/01 03:58:59;;;;;;;11.32;1.80;;;;;;;;;;5029685;28;20059;-70
2023/02/01 04:01:27;;;;;;;13.88;2.03;;;;;;;;;;5003825;28;20422;-70
2023/02/01 04:03:53;;;;;;;5.75;1.48;;;;;;;;;;5014238;28;20130;-70
2023/02/01 04:06:20;;;;;;;9.70;1.30;;;;;;;;;;5019845;28;20052;-70
2023/02/01 04:08:47;;;;;;;8.50;1.35;;;;;;;;;;5033448;28;20056;-69
2023/02/01 04:11:13;;;;;;;11.55;1.95;;;;;;;;;;5073294;28;20097;-70
2023/02/01 04:13:41;;;;;;;9.48;1.67;;;;;;;;;;5033538;28;20152;-69
2023/02/01 04:16:08;;;;;;;12.70;2.10;;;;;;;;;;5038965;28;20183;-70
2023/02/01 04:18:34;;;;;;;12.73;1.88;;;;;;;;;;5050213;28;20052;-70
2023/02/01 04:21:01;;;;;;;11.63;1.70;;;;;;;;;;5058193;28;20040;-70
2023/02/01 04:23:28;;;;;;;11.93;2.10;;;;;;;;;;5024429;28;20091;-70
2023/02/01 04:25:55;;;;;;;11.00;1.65;;;;;;;;;;5039105;28;20067;-69
2023/02/01 04:28:22;;;;;;;11.98;1.50;;;;;;;;;;5026159;28;20056;-70
2023/02/01 04:30:50;;;;;;;12.18;1.92;;;;;;;;;;5023428;28;20052;-69
2023/02/01 04:33:16;;;;;;;11.43;1.98;;;;;;;;;;5030802;28;20060;-70
2023/02/01 04:35:43;;;;;;;9.20;1.42;;;;;;;;;;5056978;28;20074;-69
2023/02/01 04:38:09;;;;;;;17.95;1.40;;;;;;;;;;5044475;28;20131;-69
2023/02/01 04:40:37;;;;;;;7.30;1.30;;;;;;;;;;5020816;28;20048;-70
2023/02/01 04:43:03;;;;;;;17.10;1.88;;;;;;;;;;5021013;28;20069;-69
2023/02/01 04:45:30;;;;;;;12.27;1.40;;;;;;;;;;5017148;28;20056;-70
2023/02/01 04:47:58;;;;;;;9.70;1.60;;;;;;;;;;5043293;28;20040;-69
2023/02/01 04:50:24;;;;;;;10.20;1.45;;;;;;;;;;5061752;28;20060;-69
2023/02/01 04:52:51;;;;;;;12.85;1.48;;;;;;;;;;5037490;28;20047;-69
2023/02/01 04:55:18;;;;;;;10.63;1.70;;;;;;;;;;5022808;28;20079;-70
2023/02/01 04:57:44;;;;;;;9.20;1.42;;;;;;;;;;5010152;28;20056;-70
2023/02/01 05:00:13;;;;;;;5.25;1.40;;;;;;;;;;5036963;28;20056;-70
2023/02/01 05:02:39;;;;;;;6.47;1.48;;;;;;;;;;5027328;28;20070;-70
2023/02/01 05:05:08;;;;;;;15.10;2.17;;;;;;;;;;4991697;28;20064;-69
2023/02/01 05:07:35;;;;;;;10.30;1.45;;;;;;;;;;5019018;28;20049;-69
2023/02/01 05:10:03;;;;;;;9.00;1.58;;;;;;;;;;5026187;28;20053;-69
2023/02/01 05:15:14;;;;;;;10.43;1.42;;;;;;;;;;5035678;28;20143;-70
2023/02/01 05:17:41;;;;;;;7.55;1.45;;;;;;;;;;5014137;28;20628;-69
2023/02/01 05:20:10;;;;;;;11.93;1.55;;;;;;;;;;5039005;28;20056;-70
2023/02/01 05:22:36;;;;;;;11.50;2.00;;;;;;;;;;5037456;28;20039;-69
2023/02/01 05:25:03;;;;;;;7.22;1.15;;;;;;;;;;5014277;28;20056;-70
2023/02/01 05:27:30;;;;;;;5.00;1.30;;;;;;;;;;5005711;28;20110;-69
2023/02/01 05:29:57;;;;;;;9.55;1.88;;;;;;;;;;5038474;28;20048;-69
2023/02/01 05:32:23;;;;;;;11.13;1.38;;;;;;;;;;5010493;28;20533;-70
2023/02/01 05:34:50;;;;;;;12.60;1.73;;;;;;;;;;5022305;28;20067;-70
2023/02/01 05:37:18;;;;;;;16.75;1.40;;;;;;;;;;5061143;28;20445;-70
2023/02/01 05:39:45;;;;;;;9.48;2.10;;;;;;;;;;5026966;28;20055;-70
2023/02/01 05:42:11;;;;;;;9.27;1.42;;;;;;;;;;5055661;28;20060;-70
2023/02/01 05:44:38;;;;;;;8.23;1.70;;;;;;;;;;5021532;28;20063;-70
2023/02/01 05:47:05;;;;;;;10.15;1.33;;;;;;;;;;5056118;28;20052;-70
2023/02/01 05:49:31;;;;;;;11.43;1.92;;;;;;;;;;5046208;28;20263;-69
2023/02/01 05:51:58;;;;;;;12.70;1.55;;;;;;;;;;5056788;28;20044;-70
2023/02/01 05:54:26;;;;;;;8.57;1.40;;;;;;;;;;5024880;28;20136;-70
2023/02/01 05:56:53;;;;;;;16.90;2.47;;;;;;;;;;5033390;28;20112;-70
2023/02/01 05:59:19;;;;;;;16.13;2.60;;;;;;;;;;5051655;28;20052;-70
2023/02/01 06:01:46;;;;;;;9.43;1.98;;;;;;;;;;5055614;28;20047;-69
2023/02/01 06:04:13;;;;;;;13.70;1.90;;;;;;;;;;5025500;28;20052;-69
2023/02/01 06:06:39;;;;;;;11.30;2.08;;;;;;;;;;5039172;28;20056;-69
2023/02/01 06:09:06;;;;;;;12.50;2.33;;;;;;;;;;5058792;28;20044;-70
2023/02/01 06:11:34;;;;;;;14.55;2.03;;;;;;;;;;5054986;28;20249;-70
2023/02/01 06:14:02;;;;;;;12.20;1.75;;;;;;;;;;5024285;28;20083;-70
2023/02/01 06:16:29;;;;;;;11.48;1.52;;;;;;;;;;5041736;28;20056;-69
2023/02/01 06:18:56;;;;;;;9.50;2.50;;;;;;;;;;5060754;28;20056;-69
2023/02/01 06:21:24;;;;;;;22.33;2.53;;;;;;;;;;5025924;28;20052;-70
2023/02/01 06:23:51;;;;;;;14.65;2.00;;;;;;;;;;5015568;28;20270;-70
2023/02/01 06:26:18;;;;;;;13.93;2.20;;;;;;;;;;5050479;28;20142;-69
2023/02/01 06:28:46;;;;;;;18.67;2.40;;;;;;;;;;5066352;28;20060;-70
2023/02/01 06:31:13;;;;;;;15.00;2.30;;;;;;;;;;5049115;28;20052;-70
2023/02/01 06:33:40;;;;;;;13.15;2.40;;;;;;;;;;5032909;28;20091;-70
2023/02/01 06:36:07;;;;;;;11.77;2.60;;;;;;;;;;5037080;28;20059;-70
2023/02/01 06:38:35;;;;;;;13.80;2.20;;;;;;;;;;5035241;28;20067;-69
2023/02/01 06:41:02;;;;;;;11.07;2.28;;;;;;;;;;5042468;28;20068;-69
2023/02/01 06:43:28;;;;;;;12.70;2.42;;;;;;;;;;4998038;28;20063;-70
2023/02/01 06:46:00;;;;;;;12.95;2.63;;;;;;;;;;5009789;28;20052;-69
2023/02/01 06:48:27;;;;;;;14.50;1.88;;;;;;;;;;5014862;28;20106;-69
2023/02/01 06:50:54;;;;;;;9.43;1.92;;;;;;;;;;5049758;28;20067;-70
2023/02/01 06:53:20;;;;;;;12.32;2.05;;;;;;;;;;4999518;28;20054;-70
2023/02/01 06:55:52;;;;;;;10.75;1.70;;;;;;;;;;5010883;28;20048;-71
2023/02/01 06:58:19;;;;;;;11.68;1.75;;;;;;;;;;5047855;28;20051;-69
2023/02/01 07:00:46;;;;;;;8.13;2.20;;;;;;;;;;5040905;28;20156;-70
2023/02/01 07:03:14;;;;;;;8.15;2.15;;;;;;;;;;4993346;28;20085;-70
2023/02/01 07:05:41;;;;;;;6.55;1.77;;;;;;;;;;5015458;28;20166;-69
2023/02/01 07:08:10;;;;;;;9.52;2.28;;;;;;;;;;5022666;28;20053;-69
2023/02/01 07:10:38;;;;;;;7.60;1.95;;;;;;;;;;5016863;28;20052;-69
2023/02/01 07:13:05;;;;;;;13.20;2.00;;;;;;;;;;5022082;28;20056;-70
2023/02/01 07:15:32;;;;;;;12.57;2.10;;;;;;;;;;5010736;28;20060;-70
2023/02/01 07:17:58;;;;;;;10.35;2.28;;;;;;;;;;5028776;28;20060;-70
2023/02/01 07:20:27;;;;;;;7.40;1.88;;;;;;;;;;5036188;28;20121;-69
2023/02/01 07:22:55;;;;;;;10.55;1.58;;;;;;;;;;5009412;28;20052;-70
2023/02/01 07:25:22;;;;;;;12.02;1.90;;;;;;;;;;4999878;28;20085;-70
2023/02/01 07:27:52;;;;;;;8.65;1.50;;;;;;;;;;5028840;28;20056;-69
2023/02/01 07:30:21;;;;;;;10.82;1.95;;;;;;;;;;5041064;28;20147;-72
2023/02/01 07:32:50;;;;;;;8.50;2.05;;;;;;;;;;5000209;28;20080;-71
2023/02/01 07:35:19;;;;;;;8.73;2.00;;;;;;;;;;4912064;28;20061;-71
2023/02/01 07:37:49;;;;;;;8.50;2.17;;;;;;;;;;5007895;28;20056;-71
2023/02/01 07:40:18;;;;;;;10.55;1.80;;;;;;;;;;4970273;28;20069;-71
2023/02/01 07:42:44;;;;;;;15.77;1.42;;;;;;;;;;5010802;28;20049;-71
2023/02/01 07:45:15;;;;;;;9.32;2.33;;;;;;;;;;5040220;28;20045;-71
2023/02/01 07:47:42;;;;;;;9.07;2.03;;;;;;;;;;5017361;28;20044;-71
2023/02/01 07:50:15;;;;;;;15.10;2.17;;;;;;;;;;5021094;28;20047;-71
2023/02/01 07:52:42;;;;;;;8.32;1.60;;;;;;;;;;5003576;28;20110;-71
2023/02/01 07:55:20;;;;;;;7.80;1.80;;;;;;;;;;5010363;28;20131;-71
2023/02/01 07:57:50;;;;;;;9.48;2.00;;;;;;;;;;4991077;28;20138;-72
2023/02/01 08:03:04;;;;;;;7.72;1.83;;;;;;;;;;5045842;28;20049;-71
2023/02/01 08:05:31;;;;;;;18.10;2.28;;;;;;;;;;4976168;28;20300;-71
2023/02/01 08:07:59;;;;;;;12.07;1.95;;;;;;;;;;5007517;28;20114;-71
2023/02/01 08:10:27;;;;;;;7.45;1.35;;;;;;;;;;5013732;28;20063;-70
2023/02/01 08:12:59;;;;;;;11.52;1.73;;;;;;;;;;5005106;28;20048;-71
2023/02/01 08:15:26;;;;;;;10.02;1.55;;;;;;;;;;4972059;28;20076;-71
2023/02/01 08:17:54;;;;;;;10.82;1.63;;;;;;;;;;5020737;28;20057;-71
2023/02/01 08:20:26;;;;;;;8.88;1.85;;;;;;;;;;4997341;28;20049;-71
2023/02/01 08:22:59;;;;;;;8.70;1.85;;;;;;;;;;5014028;28;20060;-71
2023/02/01 08:25:32;;;;;;;14.43;2.20;;;;;;;;;;4908134;28;20065;-71
2023/02/01 08:28:03;;;;;;;11.65;1.88;;;;;;;;;;4990727;28;20066;-71
2023/02/01 08:30:32;;;;;;;8.93;1.65;;;;;;;;;;4979159;28;20372;-71
2023/02/01 08:33:00;;;;;;;9.27;1.70;;;;;;;;;;4992209;28;20109;-71
2023/02/01 08:35:30;;;;;;;15.00;2.13;;;;;;;;;;5020735;28;20425;-71
2023/02/01 08:37:57;;;;;;;8.50;1.65;;;;;;;;;;5017082;28;20188;-71
2023/02/01 08:40:24;;;;;;;5.80;1.40;;;;;;;;;;5020921;28;20049;-72
2023/02/01 08:42:52;;;;;;;9.73;1.65;;;;;;;;;;5000633;28;20060;-70
2023/02/01 08:45:22;;;;;;;7.32;1.60;;;;;;;;;;4986650;28;20148;-71
2023/02/01 08:47:50;;;;;;;6.18;1.50;;;;;;;;;;4994405;28;20053;-71
2023/02/01 08:50:19;;;;;;;6.28;1.35;;;;;;;;;;5017669;28;20140;-76
2023/02/01 08:52:48;;;;;;;9.90;1.75;;;;;;;;;;4978849;28;20131;-70
2023/02/01 08:55:18;;;;;;;7.53;1.45;;;;;;;;;;4967410;28;20053;-71
2023/02/01 08:57:45;;;;;;;7.03;1.35;;;;;;;;;;5006937;28;20052;-70
2023/02/01 09:00:19;;;;;;;12.43;1.60;;;;;;;;;;5010345;28;20060;-70
2023/02/01 09:02:46;;;;;;;5.68;1.23;;;;;;;;;;4981863;28;20061;-70
2023/02/01 09:05:16;;;;;;;10.50;1.83;;;;;;;;;;4959546;28;20056;-71
2023/02/01 09:07:43;;;;;;;16.98;1.63;;;;;;;;;;4999705;28;20494;-70
2023/02/01 09:10:13;;;;;;;7.28;1.63;;;;;;;;;;5015817;28;20135;-70
2023/02/01 09:12:42;;;;;;;12.07;1.60;;;;;;;;;;5008493;28;20064;-70
2023/02/01 09:15:10;;;;;;;10.65;1.63;;;;;;;;;;4975699;28;20057;-71
2023/02/01 09:17:43;;;;;;;14.02;1.95;;;;;;;;;;5000255;28;20247;-70
2023/02/01 09:20:11;;;;;;;10.07;1.52;;;;;;;;;;5008590;28;20155;-70
2023/02/01 09:22:38;;;;;;;8.38;1.33;;;;;;;;;;5008022;28;20067;-71
2023/02/01 09:25:08;;;;;;;7.78;1.65;;;;;;;;;;4987807;28;20064;-70
2023/02/01 09:27:35;;;;;;;6.22;1.30;;;;;;;;;;4978326;28;20060;-70
2023/02/01 09:30:08;;;;;;;7.70;1.65;;;;;;;;;;5023676;28;20049;-70
2023/02/01 09:32:37;;;;;;;8.85;1.88;;;;;;;;;;5027372;28;20063;-70
2023/02/01 09:35:04;;;;;;;;;;;;;;;;;;4993663;28;20111;-70
2023/02/01 09:37:32;;;;;;;8.73;1.88;;;;;;;;;;4994643;28;19964;-70
2023/02/01 09:39:59;;;;;;;14.02;1.98;;;;;;;;;;5018096;28;20060;-70
2023/02/01 09:42:36;;;;;;;14.20;1.48;;;;;;;;;;4990840;28;20045;-69
2023/02/01 09:45:18;;;;;;;18.98;2.10;;;;;;;;;;4970851;28;20056;-69
2023/02/01 09:47:48;;;;;;;13.00;1.90;;;;;;;;;;5003971;28;20489;-69
2023/02/01 09:50:19;;;;;;;15.23;1.70;;;;;;;;;;5039065;28;20105;-69
2023/02/01 09:52:51;;;;;;;9.50;1.42;;;;;;;;;;5011524;28;20044;-70
2023/02/01 09:55:21;;;;;;;8.80;1.40;;;;;;;;;;5022132;28;20044;-71
2023/02/01 09:57:55;;;;;;;10.43;1.67;;;;;;;;;;5052790;28;20087;-69
2023/02/01 10:00:27;;;;;;;12.75;1.98;;;;;;;;;;5035201;28;20056;-69
2023/02/01 10:02:55;;;;;;;11.88;1.67;;;;;;;;;;5035716;28;20086;-69
2023/02/01 10:05:28;;;;;;;9.98;1.90;;;;;;;;;;4968334;28;20057;-69
2023/02/01 10:08:02;;;;;;;18.73;1.77;;;;;;;;;;5027188;28;20048;-69
2023/02/01 10:10:36;;;;;;;9.18;1.90;;;;;;;;;;5010270;28;20048;-70
2023/02/01 10:13:23;;;;;;;7.75;1.85;;;;;;;;;;5024681;28;20060;-69
2023/02/01 10:15:55;;;;;;;9.80;1.70;;;;;;;;;;5016630;28;20072;-69
2023/02/01 10:18:36;;;;;;;8.38;1.33;;;;;;;;;;5013225;28;20049;-70
2023/02/01 10:21:09;;;;;;;9.98;1.58;;;;;;;;;;4996564;28;20084;-69
2023/02/01 10:23:45;;;;;;;9.90;1.63;;;;;;;;;;5014189;28;20298;-70
2023/02/01 10:26:16;;;;;;;8.40;1.65;;;;;;;;;;4971722;28;20050;-69
2023/02/01 10:28:47;;;;;;;21.30;2.78;;;;;;;;;;5004137;28;20076;-70
2023/02/01 10:31:19;;;;;;;13.85;1.60;;;;;;;;;;5032846;28;20145;-69
2023/02/01 10:33:51;;;;;;;15.25;1.80;;;;;;;;;;5011578;28;20052;-69
2023/02/01 10:36:19;;;;;;;;;;;;;;;;;;4968633;28;20061;-69
2023/02/01 10:38:48;;;;;;;11.02;1.63;;;;;;;;;;5020110;28;19924;-68
2023/02/01 10:41:16;;;;;;;11.45;1.95;;;;;;;;;;5049529;28;20055;-69
2023/02/01 10:43:44;;;;;;;17.67;2.00;;;;;;;;;;5048118;28;20048;-71
2023/02/01 10:46:12;;;;;;;16.20;1.55;;;;;;;;;;4958379;28;20144;-71
2023/02/01 10:48:41;;;;;;;13.77;1.80;;;;;;;;;;5014460;28;20060;-72
2023/02/01 10:51:15;;;;;;;11.43;2.13;;;;;;;;;;4963745;28;20104;-71
2023/02/01 11:01:35;;;;;;;11.88;1.63;;;;;;;;;;4860124;29;20155;-69
2023/02/01 11:04:03;;;;;;;13.48;2.22;;;;;;;;;;4893156;28;20061;-69
2023/02/01 11:06:34;;;;;;;10.60;2.17;;;;;;;;;;4887826;29;20055;-70
2023/02/01 11:09:09;;;;;;;15.02;2.10;;;;;;;;;;4956559;28;20137;-69
2023/02/01 11:11:57;;;;;;;10.80;1.60;;;;;;;;;;5031143;28;20134;-68
2023/02/01 11:14:35;;;;;;;16.00;2.30;;;;;;;;;;5001772;28;20138;-69
2023/02/01 11:17:27;;;;;;;10.30;1.83;;;;;;;;;;5016720;28;20129;-69
2023/02/01 11:19:59;;;;;;;10.18;1.80;;;;;;;;;;5037322;28;20044;-71
2023/02/01 11:22:29;;;;;;;17.33;1.95;;;;;;;;;;5041788;28;20041;-70
2023/02/01 11:24:56;;;;;;;15.43;2.05;;;;;;;;;;5023218;28;20075;-70
2023/02/01 11:27:25;;;;;;;12.35;2.08;;;;;;;;;;5042297;28;20057;-71
2023/02/01 11:30:01;;;;;;;9.02;1.80;;;;;;;;;;5021942;28;20292;-70
2023/02/01 11:32:33;;;;;;;8.80;1.75;;;;;;;;;;5048464;28;20141;-70
2023/02/01 11:35:02;;;;;;;13.43;1.90;;;;;;;;;;4992839;28;20061;-70
2023/02/01 11:37:34;;;;;;;13.27;2.50;;;;;;;;;;4956520;28;20058;-71
2023/02/01 11:40:03;;;;;;;9.88;1.85;;;;;;;;;;4975518;28;20049;-71
2023/02/01 11:42:33;;;;;;;11.40;2.00;;;;;;;;;;4987607;28;20052;-73
2023/02/01 11:45:15;;;;;;;10.32;2.00;;;;;;;;;;4963155;28;20073;-70
2023/02/01 11:47:45;;;;;;;12.27;1.73;;;;;;;;;;4990584;28;20053;-69
2023/02/01 11:50:18;;;;;;;12.52;1.85;;;;;;;;;;4979904;28;20063;-71
2023/02/01 11:52:54;;;;;;;17.35;2.08;;;;;;;;;;5015404;28;20068;-70
2023/02/01 11:55:31;;;;;;;13.85;1.98;;;;;;;;;;4983541;28;20045;-71
2023/02/01 11:58:07;;;;;;;12.77;1.77;;;;;;;;;;4999508;28;20152;-70
2023/02/01 12:00:49;;;;;;;9.15;1.60;;;;;;;;;;5019335;28;20072;-69
2023/02/01 12:03:30;;;;;;;13.82;2.00;;;;;;;;;;5011088;28;20048;-71
2023/02/01 12:06:00;;;;;;;10.20;1.80;;;;;;;;;;4948882;28;20057;-70
2023/02/01 12:08:37;;;;;;;7.85;1.65;;;;;;;;;;5007917;28;20163;-71
2023/02/01 12:11:24;;;;;;;11.15;1.75;;;;;;;;;;5030753;28;20052;-71
2023/02/01 12:14:14;;;;;;;8.55;2.13;;;;;;;;;;5028381;28;20056;-70
2023/02/01 12:19:32;;;;;;;8.02;1.65;;;;;;;;;;5018112;27;20684;-70
2023/02/01 12:22:05;;;;;;;9.82;1.75;;;;;;;;;;4987930;28;20054;-70
2023/02/01 12:24:51;;;;;;;14.43;1.77;;;;;;;;;;4949537;28;20114;-69
2023/02/01 12:27:29;;;;;;;13.65;1.65;;;;;;;;;;4923370;28;20065;-70
2023/02/01 12:30:06;;;;;;;17.13;2.38;;;;;;;;;;4940092;28;20065;-69
2023/02/01 12:32:46;;;;;;;12.27;1.80;;;;;;;;;;4926082;28;20089;-69
2023/02/01 12:35:30;;;;;;;10.07;1.60;;;;;;;;;;4901214;28;20114;-69
2023/02/01 12:38:07;;;;;;;14.13;1.58;;;;;;;;;;4981122;28;20164;-70
2023/02/01 12:40:44;;;;;;;10.05;1.40;;;;;;;;;;5005193;28;20061;-69
2023/02/01 12:43:21;;;;;;;16.65;2.35;;;;;;;;;;4993105;28;20062;-69
2023/02/01 12:45:50;;;;;;;10.50;1.80;;;;;;;;;;4949916;28;20068;-70
2023/02/01 12:48:24;;;;;;;12.05;2.08;;;;;;;;;;4994341;28;20522;-69
2023/02/01 12:50:53;;;;;;;14.30;1.73;;;;;;;;;;4967052;28;20130;-69
2023/02/01 12:53:25;;;;;;;12.15;1.67;;;;;;;;;;4989829;28;20053;-70
2023/02/01 12:55:53;;;;;;;15.68;1.90;;;;;;;;;;4932712;28;20113;-69
2023/02/01 12:58:22;;;;;;;11.95;1.90;;;;;;;;;;4957520;28;20049;-69
2023/02/01 13:00:53;;;;;;;10.73;1.70;;;;;;;;;;4966110;28;20495;-70
2023/02/01 13:03:31;;;;;;;5.68;1.48;;;;;;;;;;4983784;28;20508;-70
2023/02/01 13:06:04;;;;;;;14.02;1.58;;;;;;;;;;4938934;28;20061;-70
2023/02/01 13:08:37;;;;;;;11.18;1.73;;;;;;;;;;4924117;28;20058;-69
2023/02/01 13:11:13;;;;;;;13.43;2.15;;;;;;;;;;4970041;28;20119;-70
2023/02/01 13:13:47;;;;;;;16.67;2.00;;;;;;;;;;4996932;28;20060;-69
2023/02/01 13:16:24;;;;;;;12.15;1.70;;;;;;;;;;4971496;28;20082;-70
2023/02/01 13:18:55;;;;;;;6.00;1.13;;;;;;;;;;4956295;28;20129;-69
2023/02/01 13:21:30;;;;;;;12.13;1.92;;;;;;;;;;4987377;28;20057;-70
2023/02/01 13:24:01;;;;;;;10.60;1.65;;;;;;;;;;4988619;28;20050;-70
2023/02/01 13:26:28;;;;;;;9.45;1.40;;;;;;;;;;4923433;28;20085;-70
2023/02/01 13:28:57;;;;;;;17.52;2.13;;;;;;;;;;4995403;28;20050;-69
2023/02/01 13:31:34;;;;;;;11.52;2.15;;;;;;;;;;4961734;28;20090;-69
2023/02/01 13:34:11;;;;;;;15.70;2.13;;;;;;;;;;4969455;28;20058;-70
2023/02/01 13:36:43;;;;;;;17.58;2.00;;;;;;;;;;4936372;28;20091;-70
2023/02/01 13:39:29;;;;;;;16.92;2.08;;;;;;;;;;4980294;28;20049;-70
2023/02/01 13:41:59;;;;;;;9.57;1.85;;;;;;;;;;4968476;28;20053;-70
2023/02/01 13:44:30;;;;;;;10.32;1.88;;;;;;;;;;4984523;28;20058;-71
2023/02/01 13:47:01;;;;;;;19.15;2.17;;;;;;;;;;4964312;28;20069;-69
2023/02/01 13:49:33;;;;;;;7.18;1.52;;;;;;;;;;5003370;28;20068;-71
2023/02/01 13:52:04;;;;;;;16.40;2.63;;;;;;;;;;4951906;28;20089;-71
2023/02/01 13:54:33;;;;;;;12.43;2.22;;;;;;;;;;4956312;28;20050;-69
2023/02/01 13:59:49;;;;;;;20.00;2.23;;;;;;;;;;4852756;29;20084;-70
2023/02/01 14:02:39;;;;;;;14.25;2.20;;;;;;;;;;4982964;28;20076;-71
2023/02/01 14:05:33;;;;;;;16.10;1.88;;;;;;;;;;4961165;28;20140;-70
2023/02/01 14:08:13;;;;;;;12.60;1.67;;;;;;;;;;4906207;28;20051;-70
2023/02/01 14:10:59;;;;;;;14.48;1.55;;;;;;;;;;4926983;28;20054;-71
2023/02/01 14:13:32;;;;;;;10.50;1.48;;;;;;;;;;4948142;28;20104;-70
2023/02/01 14:16:14;;;;;;;7.25;1.40;;;;;;;;;;4893241;28;20062;-70
2023/02/01 14:19:00;;;;;;;12.98;1.35;;;;;;;;;;4915752;28;20146;-71
2023/02/01 14:21:44;;;;;;;11.98;2.15;;;;;;;;;;4926762;28;20062;-71
2023/02/01 15:20:07;;;;;;;19.10;2.30;;;;;;;;;;6118322;23;20033;-70
2023/02/01 15:22:41;;;;;;;23.70;2.05;;;;;;;;;;6123791;22;20055;-73
2023/02/01 15:25:26;;;;;;;10.07;1.73;;;;;;;;;;6122352;23;20028;-72
2023/02/01 15:28:16;;;;;;;10.32;1.65;;;;;;;;;;6123387;22;20032;-72
2023/02/01 15:30:58;;;;;;;13.60;2.20;;;;;;;;;;6097799;23;20027;-71
2023/02/01 15:33:32;;;;;;;11.52;1.75;;;;;;;;;;5982034;23;20054;-71
2023/02/01 15:36:16;;;;;;;8.52;1.95;;;;;;;;;;6031975;23;20218;-71
2023/02/01 15:38:45;;;;;;;7.00;1.40;;;;;;;;;;5911756;23;20027;-70
2023/02/01 15:41:19;;;;;;;12.20;1.63;;;;;;;;;;5964317;23;20031;-71
2023/02/01 15:43:56;;;;;;;;;;;;;;;;;;5984127;23;20027;-71
2023/02/01 15:46:33;;;;;;;14.35;1.42;;;;;;;;;;6013230;23;19928;-70
2023/02/01 15:49:04;;;;;;;8.32;1.67;;;;;;;;;;6086632;23;20514;-70
2023/02/01 15:51:33;;;;;;;6.60;1.67;;;;;;;;;;6166820;22;20034;-70
2023/02/01 15:54:12;;;;;;;;;;;;;;;;;;;;;
2023/02/01 15:56:51;;;;;;;13.65;1.85;;;;;;;;;;6100409;23;20031;-70
2023/02/01 15:59:21;;;;;;;8.98;1.90;;;;;;;;;;6100805;23;20028;-71
2023/02/01 16:01:56;;;;;;;12.07;2.13;;;;;;;;;;6121969;22;20201;-70
2023/02/01 16:04:29;;;;;;;15.40;2.20;;;;;;;;;;6114273;23;20040;-71
2023/02/01 16:07:18;;;;;;;8.90;1.60;;;;;;;;;;6083485;23;20295;-71
2023/02/01 16:09:54;;;;;;;11.45;1.67;;;;;;;;;;6118904;22;20033;-70
2023/02/01 16:12:25;;;;;;;12.02;1.83;;;;;;;;;;6137525;23;20021;-70
2023/02/01 16:14:53;;;;;;;12.05;1.70;;;;;;;;;;6138143;23;20020;-70
2023/02/01 16:17:21;;;;;;;16.42;1.92;;;;;;;;;;6117559;23;20029;-72
2023/02/01 16:19:55;;;;;;;12.60;1.92;;;;;;;;;;6181063;23;20028;-70
2023/02/01 16:22:21;;;;;;;14.23;1.50;;;;;;;;;;6306633;22;20028;-71
2023/02/01 16:24:54;;;;;;;8.13;1.33;;;;;;;;;;6153372;23;20020;-70
2023/02/01 16:27:23;;;;;;;10.75;1.40;;;;;;;;;;6117778;23;20034;-70
2023/02/01 16:29:59;;;;;;;14.73;2.10;;;;;;;;;;6150828;23;20035;-70
2023/02/01 16:32:31;;;;;;;13.77;2.30;;;;;;;;;;6176029;23;20052;-71
2023/02/01 16:35:07;;;;;;;;;;;;;;;;;;6150217;23;21340;-70